Time;durP1;ratioP1;P1;durP2;ratioP2;P2;SDS_P1;SDS_P2;PMS_P1;PMS_P2;Temp;Humidity;BMP_temperature;BMP_pressure;BME280_temperature;BME280_humidity;BME280_pressure;Samples;Min_cycle;Max_cycle;Signal;HPM_P1;HPM_P2
2023/11/07 21:51:12;;;;;;;4.68;2.10;;;;;;;;;;5135287;27;20394;-42
2023/11/07 21:53:38;;;;;;;3.85;2.25;;;;;;;;;;5121823;28;20241;-40
2023/11/07 21:56:05;;;;;;;4.32;2.20;;;;;;;;;;5121587;28;20114;-40
2023/11/07 21:58:32;;;;;;;5.65;2.38;;;;;;;;;;5121694;28;20042;-42
2023/11/07 22:00:59;;;;;;;6.35;2.40;;;;;;;;;;5119850;28;20024;-43
2023/11/07 22:03:25;;;;;;;4.75;2.03;;;;;;;;;;5111383;28;20295;-42
2023/11/07 22:05:52;;;;;;;2.88;2.22;;;;;;;;;;5121116;28;20023;-61
2023/11/07 22:08:18;;;;;;;4.72;2.22;;;;;;;;;;5121006;28;20086;-50
2023/11/07 22:10:47;;;;;;;7.93;2.50;;;;;;;;;;5114611;28;20016;-51
2023/11/07 22:13:14;;;;;;;4.97;2.97;;;;;;;;;;5120709;28;20039;-42
2023/11/07 22:15:40;;;;;;;4.55;3.20;;;;;;;;;;5121468;28;20055;-43
2023/11/07 22:18:08;;;;;;;7.03;2.92;;;;;;;;;;5121014;28;20026;-41
2023/11/07 22:20:38;;;;;;;5.80;3.25;;;;;;;;;;5121283;28;20020;-41
2023/11/07 22:23:04;;;;;;;7.30;2.83;;;;;;;;;;5120626;28;20031;-38
2023/11/07 22:25:31;;;;;;;6.05;2.80;;;;;;;;;;5121083;28;20012;-41
2023/11/07 22:27:58;;;;;;;3.70;2.63;;;;;;;;;;5120981;28;20020;-50
2023/11/07 22:30:25;;;;;;;5.65;2.55;;;;;;;;;;5121256;28;20028;-45
2023/11/07 22:32:51;;;;;;;6.97;2.65;;;;;;;;;;5119930;28;20065;-50
2023/11/07 22:35:22;;;;;;;10.68;2.40;;;;;;;;;;5119156;28;20044;-50
2023/11/07 22:37:48;;;;;;;6.40;2.33;;;;;;;;;;5119056;28;20054;-51
2023/11/07 22:40:15;;;;;;;5.20;2.20;;;;;;;;;;5117307;28;20292;-52
2023/11/07 22:42:43;;;;;;;4.60;2.38;;;;;;;;;;5114462;28;20279;-45
2023/11/07 22:45:10;;;;;;;4.45;2.35;;;;;;;;;;5119417;28;20028;-45
2023/11/07 22:47:37;;;;;;;6.40;2.20;;;;;;;;;;5119039;28;20241;-44
2023/11/07 22:50:07;;;;;;;5.72;2.65;;;;;;;;;;5115879;28;20040;-47
2023/11/07 22:52:34;;;;;;;4.72;2.35;;;;;;;;;;5106847;28;20028;-52
2023/11/07 22:55:00;;;;;;;7.75;2.35;;;;;;;;;;5107197;28;20087;-44
2023/11/07 22:57:29;;;;;;;3.38;2.33;;;;;;;;;;5106342;28;20024;-44
2023/11/07 22:59:56;;;;;;;6.78;2.50;;;;;;;;;;5106293;28;20059;-46
2023/11/07 23:02:22;;;;;;;7.97;2.50;;;;;;;;;;5106498;28;20020;-49
2023/11/07 23:04:52;;;;;;;4.32;2.60;;;;;;;;;;5107246;28;20020;-44
2023/11/07 23:07:19;;;;;;;6.10;2.40;;;;;;;;;;5106873;28;20028;-43
2023/11/07 23:09:48;;;;;;;5.47;2.40;;;;;;;;;;5106919;28;20028;-44
2023/11/07 23:12:15;;;;;;;8.70;2.50;;;;;;;;;;5105658;28;20056;-43
2023/11/07 23:14:42;;;;;;;5.82;2.30;;;;;;;;;;5106906;28;20047;-42
2023/11/07 23:17:08;;;;;;;3.95;2.40;;;;;;;;;;5106674;28;20020;-43
2023/11/07 23:19:35;;;;;;;5.25;1.95;;;;;;;;;;5106888;28;20020;-43
2023/11/07 23:22:02;;;;;;;5.90;2.05;;;;;;;;;;5106408;28;20019;-42
2023/11/07 23:24:28;;;;;;;4.90;2.00;;;;;;;;;;5106114;28;20034;-52
2023/11/07 23:26:55;;;;;;;3.80;1.85;;;;;;;;;;5106315;28;20016;-46
2023/11/07 23:29:22;;;;;;;7.57;2.00;;;;;;;;;;5106522;28;20052;-49
2023/11/07 23:31:51;;;;;;;3.97;2.00;;;;;;;;;;5106026;28;20031;-44
2023/11/07 23:34:17;;;;;;;3.50;2.03;;;;;;;;;;5106357;28;20035;-46
2023/11/07 23:36:44;;;;;;;3.20;1.88;;;;;;;;;;5106091;28;20027;-43
2023/11/07 23:39:12;;;;;;;5.70;2.10;;;;;;;;;;5105969;28;20039;-45
2023/11/07 23:41:39;;;;;;;3.03;2.15;;;;;;;;;;5105899;28;20023;-46
2023/11/07 23:44:06;;;;;;;4.05;2.00;;;;;;;;;;5106059;28;20032;-43
2023/11/07 23:46:33;;;;;;;3.60;2.22;;;;;;;;;;5105695;28;20016;-43
2023/11/07 23:48:59;;;;;;;5.90;1.92;;;;;;;;;;5105799;28;20330;-44
2023/11/07 23:51:27;;;;;;;4.88;2.40;;;;;;;;;;5105771;28;20032;-43
2023/11/07 23:53:53;;;;;;;4.88;2.15;;;;;;;;;;5105755;28;20246;-46
2023/11/07 23:56:21;;;;;;;5.40;2.30;;;;;;;;;;5105714;28;20331;-44
2023/11/07 23:58:48;;;;;;;7.03;2.08;;;;;;;;;;5105868;28;20073;-44
